sensor_id;sensor_type;location;lat;lon;timestamp;P1;durP1;ratioP1;P2;durP2;ratioP2
48767;SDS011;34933;40.968;14.538;2022-09-09T00:00:26;25.60;;;7.30;;
48767;SDS011;34933;40.968;14.538;2022-09-09T00:03:18;24.42;;;6.32;;
48767;SDS011;34933;40.968;14.538;2022-09-09T00:06:09;16.83;;;6.75;;
48767;SDS011;34933;40.968;14.538;2022-09-09T00:13:16;22.90;;;7.55;;
48767;SDS011;34933;40.968;14.538;2022-09-09T00:19:39;21.30;;;6.22;;
48767;SDS011;34933;40.968;14.538;2022-09-09T00:46:24;19.92;;;6.80;;
48767;SDS011;34933;40.968;14.538;2022-09-09T00:56:27;24.05;;;8.05;;
48767;SDS011;34933;40.968;14.538;2022-09-09T01:14:53;23.42;;;9.05;;
48767;SDS011;34933;40.968;14.538;2022-09-09T01:18:10;29.63;;;8.95;;
48767;SDS011;34933;40.968;14.538;2022-09-09T01:27:31;20.30;;;7.97;;
48767;SDS011;34933;40.968;14.538;2022-09-09T01:30:18;22.58;;;9.00;;
48767;SDS011;34933;40.968;14.538;2022-09-09T01:33:03;17.80;;;8.15;;
48767;SDS011;34933;40.968;14.538;2022-09-09T01:38:39;26.17;;;8.73;;
48767;SDS011;34933;40.968;14.538;2022-09-09T01:41:24;23.73;;;9.60;;
48767;SDS011;34933;40.968;14.538;2022-09-09T01:44:29;26.67;;;8.80;;
48767;SDS011;34933;40.968;14.538;2022-09-09T01:47:14;24.08;;;9.30;;
48767;SDS011;34933;40.968;14.538;2022-09-09T01:50:19;24.05;;;8.50;;
48767;SDS011;34933;40.968;14.538;2022-09-09T01:53:05;22.42;;;8.57;;
48767;SDS011;34933;40.968;14.538;2022-09-09T01:56:34;23.10;;;8.18;;
48767;SDS011;34933;40.968;14.538;2022-09-09T02:05:24;26.75;;;8.63;;
48767;SDS011;34933;40.968;14.538;2022-09-09T02:08:10;20.52;;;9.07;;
48767;SDS011;34933;40.968;14.538;2022-09-09T02:14:08;27.88;;;9.43;;
48767;SDS011;34933;40.968;14.538;2022-09-09T02:17:05;23.13;;;9.48;;
48767;SDS011;34933;40.968;14.538;2022-09-09T02:20:13;22.58;;;9.07;;
48767;SDS011;34933;40.968;14.538;2022-09-09T02:23:18;17.63;;;8.80;;
48767;SDS011;34933;40.968;14.538;2022-09-09T02:26:06;27.80;;;10.15;;
48767;SDS011;34933;40.968;14.538;2022-09-09T02:28:55;25.85;;;9.10;;
48767;SDS011;34933;40.968;14.538;2022-09-09T02:31:43;29.60;;;9.63;;
48767;SDS011;34933;40.968;14.538;2022-09-09T02:34:39;25.13;;;8.80;;
48767;SDS011;34933;40.968;14.538;2022-09-09T02:37:29;21.95;;;9.63;;
48767;SDS011;34933;40.968;14.538;2022-09-09T02:43:09;20.35;;;8.90;;
48767;SDS011;34933;40.968;14.538;2022-09-09T02:45:58;21.60;;;9.57;;
48767;SDS011;34933;40.968;14.538;2022-09-09T02:52:01;21.83;;;9.15;;
48767;SDS011;34933;40.968;14.538;2022-09-09T02:54:54;33.85;;;9.85;;
48767;SDS011;34933;40.968;14.538;2022-09-09T02:57:45;22.95;;;8.82;;
48767;SDS011;34933;40.968;14.538;2022-09-09T03:00:33;24.88;;;8.93;;
48767;SDS011;34933;40.968;14.538;2022-09-09T03:03:20;20.63;;;8.50;;
48767;SDS011;34933;40.968;14.538;2022-09-09T03:06:07;22.67;;;9.48;;
48767;SDS011;34933;40.968;14.538;2022-09-09T03:08:52;18.15;;;8.38;;
48767;SDS011;34933;40.968;14.538;2022-09-09T03:11:41;20.50;;;9.45;;
48767;SDS011;34933;40.968;14.538;2022-09-09T03:14:26;24.92;;;8.68;;
48767;SDS011;34933;40.968;14.538;2022-09-09T03:17:11;20.63;;;8.90;;
48767;SDS011;34933;40.968;14.538;2022-09-09T03:20:05;16.30;;;8.73;;
48767;SDS011;34933;40.968;14.538;2022-09-09T03:22:52;16.55;;;8.60;;
48767;SDS011;34933;40.968;14.538;2022-09-09T03:25:37;22.40;;;9.10;;
48767;SDS011;34933;40.968;14.538;2022-09-09T03:28:23;20.83;;;9.07;;
48767;SDS011;34933;40.968;14.538;2022-09-09T03:31:13;20.85;;;8.45;;
48767;SDS011;34933;40.968;14.538;2022-09-09T03:34:00;20.08;;;8.10;;
48767;SDS011;34933;40.968;14.538;2022-09-09T03:36:47;19.83;;;8.00;;
48767;SDS011;34933;40.968;14.538;2022-09-09T03:39:33;19.63;;;7.88;;
48767;SDS011;34933;40.968;14.538;2022-09-09T03:42:17;17.17;;;7.18;;
48767;SDS011;34933;40.968;14.538;2022-09-09T03:45:04;17.48;;;7.68;;
48767;SDS011;34933;40.968;14.538;2022-09-09T03:47:49;22.30;;;7.47;;
48767;SDS011;34933;40.968;14.538;2022-09-09T03:50:34;20.90;;;7.88;;
48767;SDS011;34933;40.968;14.538;2022-09-09T03:53:20;20.95;;;7.38;;
48767;SDS011;34933;40.968;14.538;2022-09-09T03:56:06;27.60;;;9.13;;
48767;SDS011;34933;40.968;14.538;2022-09-09T03:58:51;18.48;;;7.90;;
48767;SDS011;34933;40.968;14.538;2022-09-09T04:01:36;15.73;;;7.97;;
48767;SDS011;34933;40.968;14.538;2022-09-09T04:04:20;22.30;;;8.60;;
48767;SDS011;34933;40.968;14.538;2022-09-09T04:07:05;22.63;;;8.63;;
48767;SDS011;34933;40.968;14.538;2022-09-09T04:09:51;45.22;;;17.80;;
48767;SDS011;34933;40.968;14.538;2022-09-09T04:12:37;50.75;;;23.65;;
48767;SDS011;34933;40.968;14.538;2022-09-09T04:15:21;58.03;;;28.88;;
48767;SDS011;34933;40.968;14.538;2022-09-09T04:18:06;63.83;;;24.15;;
48767;SDS011;34933;40.968;14.538;2022-09-09T04:20:51;47.95;;;19.40;;
48767;SDS011;34933;40.968;14.538;2022-09-09T04:23:39;35.58;;;15.82;;
48767;SDS011;34933;40.968;14.538;2022-09-09T04:26:23;38.38;;;15.10;;
48767;SDS011;34933;40.968;14.538;2022-09-09T04:29:08;43.80;;;16.50;;
48767;SDS011;34933;40.968;14.538;2022-09-09T04:31:53;31.17;;;15.38;;
48767;SDS011;34933;40.968;14.538;2022-09-09T04:34:37;46.50;;;23.20;;
48767;SDS011;34933;40.968;14.538;2022-09-09T04:37:22;36.42;;;19.20;;
48767;SDS011;34933;40.968;14.538;2022-09-09T04:40:09;55.50;;;20.98;;
48767;SDS011;34933;40.968;14.538;2022-09-09T04:42:55;43.47;;;21.85;;
48767;SDS011;34933;40.968;14.538;2022-09-09T04:45:41;55.72;;;27.88;;
48767;SDS011;34933;40.968;14.538;2022-09-09T04:48:27;42.40;;;18.52;;
48767;SDS011;34933;40.968;14.538;2022-09-09T04:51:13;34.35;;;14.15;;
48767;SDS011;34933;40.968;14.538;2022-09-09T04:53:58;33.08;;;11.65;;
48767;SDS011;34933;40.968;14.538;2022-09-09T04:56:43;42.90;;;15.95;;
48767;SDS011;34933;40.968;14.538;2022-09-09T04:59:28;33.10;;;13.20;;
48767;SDS011;34933;40.968;14.538;2022-09-09T05:02:15;33.60;;;13.65;;
48767;SDS011;34933;40.968;14.538;2022-09-09T05:05:00;37.17;;;13.40;;
48767;SDS011;34933;40.968;14.538;2022-09-09T05:07:44;42.90;;;15.00;;
48767;SDS011;34933;40.968;14.538;2022-09-09T05:10:32;41.55;;;16.08;;
48767;SDS011;34933;40.968;14.538;2022-09-09T05:13:17;56.42;;;23.13;;
48767;SDS011;34933;40.968;14.538;2022-09-09T05:16:02;52.50;;;21.80;;
48767;SDS011;34933;40.968;14.538;2022-09-09T05:18:46;50.58;;;20.63;;
48767;SDS011;34933;40.968;14.538;2022-09-09T05:21:32;42.35;;;18.85;;
48767;SDS011;34933;40.968;14.538;2022-09-09T05:24:16;48.35;;;19.67;;
48767;SDS011;34933;40.968;14.538;2022-09-09T05:27:02;36.60;;;17.23;;
48767;SDS011;34933;40.968;14.538;2022-09-09T05:29:47;42.25;;;16.48;;
48767;SDS011;34933;40.968;14.538;2022-09-09T05:32:32;23.45;;;11.85;;
48767;SDS011;34933;40.968;14.538;2022-09-09T05:35:17;34.28;;;12.73;;
48767;SDS011;34933;40.968;14.538;2022-09-09T05:38:03;34.42;;;12.55;;
48767;SDS011;34933;40.968;14.538;2022-09-09T05:40:48;37.78;;;14.55;;
48767;SDS011;34933;40.968;14.538;2022-09-09T05:43:34;38.00;;;14.90;;
48767;SDS011;34933;40.968;14.538;2022-09-09T05:46:20;43.97;;;15.43;;
48767;SDS011;34933;40.968;14.538;2022-09-09T05:49:08;25.30;;;9.65;;
48767;SDS011;34933;40.968;14.538;2022-09-09T05:51:55;30.83;;;11.52;;
48767;SDS011;34933;40.968;14.538;2022-09-09T05:54:41;31.27;;;11.25;;
48767;SDS011;34933;40.968;14.538;2022-09-09T05:57:26;35.47;;;11.27;;
48767;SDS011;34933;40.968;14.538;2022-09-09T06:00:11;34.90;;;12.75;;
48767;SDS011;34933;40.968;14.538;2022-09-09T06:03:02;32.33;;;12.00;;
48767;SDS011;34933;40.968;14.538;2022-09-09T06:05:47;27.90;;;10.23;;
48767;SDS011;34933;40.968;14.538;2022-09-09T06:08:42;32.13;;;10.18;;
48767;SDS011;34933;40.968;14.538;2022-09-09T06:11:29;27.90;;;9.95;;
48767;SDS011;34933;40.968;14.538;2022-09-09T06:14:20;26.60;;;9.23;;
48767;SDS011;34933;40.968;14.538;2022-09-09T06:17:07;25.27;;;5.38;;
48767;SDS011;34933;40.968;14.538;2022-09-09T06:19:51;28.98;;;7.38;;
48767;SDS011;34933;40.968;14.538;2022-09-09T06:22:38;35.03;;;9.68;;
48767;SDS011;34933;40.968;14.538;2022-09-09T06:25:25;35.85;;;12.40;;
48767;SDS011;34933;40.968;14.538;2022-09-09T06:28:09;44.35;;;15.55;;
48767;SDS011;34933;40.968;14.538;2022-09-09T06:30:58;38.33;;;15.35;;
48767;SDS011;34933;40.968;14.538;2022-09-09T06:33:44;43.47;;;15.98;;
48767;SDS011;34933;40.968;14.538;2022-09-09T06:36:31;37.25;;;17.35;;
48767;SDS011;34933;40.968;14.538;2022-09-09T06:39:17;27.45;;;13.35;;
48767;SDS011;34933;40.968;14.538;2022-09-09T06:42:02;28.77;;;12.57;;
48767;SDS011;34933;40.968;14.538;2022-09-09T06:45:03;18.58;;;10.30;;
48767;SDS011;34933;40.968;14.538;2022-09-09T06:47:57;23.55;;;10.35;;
48767;SDS011;34933;40.968;14.538;2022-09-09T06:50:42;16.52;;;7.35;;
48767;SDS011;34933;40.968;14.538;2022-09-09T06:53:27;23.02;;;9.55;;
48767;SDS011;34933;40.968;14.538;2022-09-09T06:59:02;16.40;;;9.82;;
48767;SDS011;34933;40.968;14.538;2022-09-09T07:01:49;16.13;;;8.20;;
48767;SDS011;34933;40.968;14.538;2022-09-09T07:04:36;21.38;;;10.18;;
48767;SDS011;34933;40.968;14.538;2022-09-09T07:07:21;24.30;;;9.85;;
48767;SDS011;34933;40.968;14.538;2022-09-09T07:10:09;13.60;;;8.70;;
48767;SDS011;34933;40.968;14.538;2022-09-09T07:12:55;15.80;;;7.43;;
48767;SDS011;34933;40.968;14.538;2022-09-09T07:15:42;16.65;;;9.50;;
48767;SDS011;34933;40.968;14.538;2022-09-09T07:18:26;13.70;;;8.85;;
48767;SDS011;34933;40.968;14.538;2022-09-09T07:21:11;13.88;;;7.85;;
48767;SDS011;34933;40.968;14.538;2022-09-09T07:23:58;14.68;;;7.45;;
48767;SDS011;34933;40.968;14.538;2022-09-09T07:26:44;8.13;;;5.50;;
48767;SDS011;34933;40.968;14.538;2022-09-09T07:29:30;13.18;;;4.32;;
48767;SDS011;34933;40.968;14.538;2022-09-09T07:32:14;13.00;;;6.32;;
48767;SDS011;34933;40.968;14.538;2022-09-09T07:35:00;11.52;;;4.88;;
48767;SDS011;34933;40.968;14.538;2022-09-09T07:37:45;18.88;;;6.30;;
48767;SDS011;34933;40.968;14.538;2022-09-09T07:40:30;20.30;;;7.20;;
48767;SDS011;34933;40.968;14.538;2022-09-09T07:43:15;21.55;;;9.85;;
48767;SDS011;34933;40.968;14.538;2022-09-09T07:46:03;17.90;;;7.88;;
48767;SDS011;34933;40.968;14.538;2022-09-09T07:48:49;11.93;;;5.20;;
48767;SDS011;34933;40.968;14.538;2022-09-09T07:51:46;8.73;;;4.68;;
48767;SDS011;34933;40.968;14.538;2022-09-09T07:54:32;9.15;;;4.38;;
48767;SDS011;34933;40.968;14.538;2022-09-09T07:57:19;8.70;;;4.63;;
48767;SDS011;34933;40.968;14.538;2022-09-09T08:00:03;11.15;;;5.28;;
48767;SDS011;34933;40.968;14.538;2022-09-09T08:02:56;10.70;;;4.10;;
48767;SDS011;34933;40.968;14.538;2022-09-09T08:05:41;13.73;;;3.13;;
48767;SDS011;34933;40.968;14.538;2022-09-09T08:08:27;7.07;;;2.92;;
48767;SDS011;34933;40.968;14.538;2022-09-09T08:11:13;7.55;;;2.40;;
48767;SDS011;34933;40.968;14.538;2022-09-09T08:14:00;6.72;;;2.40;;
48767;SDS011;34933;40.968;14.538;2022-09-09T08:16:46;7.25;;;2.70;;
48767;SDS011;34933;40.968;14.538;2022-09-09T08:19:34;5.93;;;2.20;;
48767;SDS011;34933;40.968;14.538;2022-09-09T08:22:23;6.90;;;1.98;;
48767;SDS011;34933;40.968;14.538;2022-09-09T08:25:08;7.60;;;2.08;;
48767;SDS011;34933;40.968;14.538;2022-09-09T08:27:55;8.00;;;2.97;;
48767;SDS011;34933;40.968;14.538;2022-09-09T08:30:39;6.00;;;1.80;;
48767;SDS011;34933;40.968;14.538;2022-09-09T08:33:24;8.68;;;2.97;;
48767;SDS011;34933;40.968;14.538;2022-09-09T08:36:10;6.78;;;2.28;;
48767;SDS011;34933;40.968;14.538;2022-09-09T08:38:56;9.20;;;2.70;;
48767;SDS011;34933;40.968;14.538;2022-09-09T08:44:57;5.22;;;2.10;;
48767;SDS011;34933;40.968;14.538;2022-09-09T08:51:15;7.05;;;2.20;;
48767;SDS011;34933;40.968;14.538;2022-09-09T08:54:02;6.60;;;1.65;;
48767;SDS011;34933;40.968;14.538;2022-09-09T08:56:49;10.15;;;2.00;;
48767;SDS011;34933;40.968;14.538;2022-09-09T08:59:35;5.97;;;3.22;;
48767;SDS011;34933;40.968;14.538;2022-09-09T09:02:26;2.47;;;1.90;;
48767;SDS011;34933;40.968;14.538;2022-09-09T09:08:30;9.07;;;2.42;;
48767;SDS011;34933;40.968;14.538;2022-09-09T09:11:25;5.60;;;1.60;;
48767;SDS011;34933;40.968;14.538;2022-09-09T09:14:11;5.72;;;2.22;;
48767;SDS011;34933;40.968;14.538;2022-09-09T09:17:22;3.38;;;1.38;;
48767;SDS011;34933;40.968;14.538;2022-09-09T09:20:16;2.97;;;1.65;;
48767;SDS011;34933;40.968;14.538;2022-09-09T09:23:09;2.95;;;1.60;;
48767;SDS011;34933;40.968;14.538;2022-09-09T09:26:05;6.40;;;1.55;;
48767;SDS011;34933;40.968;14.538;2022-09-09T09:28:54;4.97;;;2.40;;
48767;SDS011;34933;40.968;14.538;2022-09-09T09:31:49;6.57;;;1.88;;
48767;SDS011;34933;40.968;14.538;2022-09-09T09:34:40;7.95;;;1.88;;
48767;SDS011;34933;40.968;14.538;2022-09-09T09:37:29;5.65;;;1.65;;
48767;SDS011;34933;40.968;14.538;2022-09-09T09:40:18;3.92;;;1.60;;
48767;SDS011;34933;40.968;14.538;2022-09-09T09:43:05;4.80;;;1.60;;
48767;SDS011;34933;40.968;14.538;2022-09-09T09:45:52;7.60;;;1.80;;
48767;SDS011;34933;40.968;14.538;2022-09-09T09:48:37;4.47;;;1.92;;
48767;SDS011;34933;40.968;14.538;2022-09-09T09:51:21;7.43;;;2.25;;
48767;SDS011;34933;40.968;14.538;2022-09-09T09:57:10;4.10;;;1.88;;
48767;SDS011;34933;40.968;14.538;2022-09-09T10:03:22;5.57;;;1.80;;
48767;SDS011;34933;40.968;14.538;2022-09-09T10:06:11;7.13;;;1.70;;
48767;SDS011;34933;40.968;14.538;2022-09-09T10:08:56;8.32;;;2.40;;
48767;SDS011;34933;40.968;14.538;2022-09-09T10:17:55;9.48;;;2.35;;
48767;SDS011;34933;40.968;14.538;2022-09-09T10:30:16;7.82;;;2.28;;
48767;SDS011;34933;40.968;14.538;2022-09-09T10:33:04;6.85;;;2.40;;
48767;SDS011;34933;40.968;14.538;2022-09-09T10:36:12;10.57;;;2.15;;
48767;SDS011;34933;40.968;14.538;2022-09-09T10:39:05;9.38;;;2.22;;
48767;SDS011;34933;40.968;14.538;2022-09-09T10:42:07;12.23;;;3.45;;
48767;SDS011;34933;40.968;14.538;2022-09-09T10:48:41;9.10;;;2.08;;
48767;SDS011;34933;40.968;14.538;2022-09-09T10:57:46;8.15;;;2.38;;
48767;SDS011;34933;40.968;14.538;2022-09-09T11:00:40;12.15;;;2.60;;
48767;SDS011;34933;40.968;14.538;2022-09-09T11:03:29;11.93;;;3.03;;
48767;SDS011;34933;40.968;14.538;2022-09-09T11:06:19;10.77;;;3.47;;
48767;SDS011;34933;40.968;14.538;2022-09-09T11:09:08;11.55;;;2.70;;
48767;SDS011;34933;40.968;14.538;2022-09-09T11:11:59;11.55;;;3.30;;
48767;SDS011;34933;40.968;14.538;2022-09-09T11:14:55;9.73;;;2.53;;
48767;SDS011;34933;40.968;14.538;2022-09-09T11:17:47;12.95;;;3.17;;
48767;SDS011;34933;40.968;14.538;2022-09-09T11:20:36;13.20;;;2.80;;
48767;SDS011;34933;40.968;14.538;2022-09-09T11:23:26;15.20;;;4.05;;
48767;SDS011;34933;40.968;14.538;2022-09-09T11:26:18;16.77;;;4.18;;
48767;SDS011;34933;40.968;14.538;2022-09-09T11:35:52;18.80;;;5.07;;
48767;SDS011;34933;40.968;14.538;2022-09-09T11:38:50;16.98;;;5.00;;
48767;SDS011;34933;40.968;14.538;2022-09-09T11:41:36;24.67;;;5.95;;
48767;SDS011;34933;40.968;14.538;2022-09-09T11:44:30;27.98;;;5.18;;
48767;SDS011;34933;40.968;14.538;2022-09-09T11:47:33;20.52;;;4.78;;
48767;SDS011;34933;40.968;14.538;2022-09-09T11:53:21;23.20;;;4.70;;
48767;SDS011;34933;40.968;14.538;2022-09-09T11:56:08;22.05;;;5.35;;
48767;SDS011;34933;40.968;14.538;2022-09-09T12:02:08;19.85;;;4.97;;
48767;SDS011;34933;40.968;14.538;2022-09-09T12:05:08;22.60;;;5.28;;
48767;SDS011;34933;40.968;14.538;2022-09-09T12:07:56;23.70;;;5.75;;
48767;SDS011;34933;40.968;14.538;2022-09-09T12:10:52;26.40;;;4.50;;
48767;SDS011;34933;40.968;14.538;2022-09-09T12:13:54;24.00;;;4.82;;
48767;SDS011;34933;40.968;14.538;2022-09-09T12:16:40;21.45;;;4.85;;
48767;SDS011;34933;40.968;14.538;2022-09-09T12:19:24;23.42;;;5.55;;
48767;SDS011;34933;40.968;14.538;2022-09-09T12:33:51;27.42;;;5.75;;
48767;SDS011;34933;40.968;14.538;2022-09-09T12:36:36;21.70;;;4.75;;
48767;SDS011;34933;40.968;14.538;2022-09-09T12:39:26;30.05;;;7.38;;
48767;SDS011;34933;40.968;14.538;2022-09-09T12:42:18;23.75;;;5.10;;
48767;SDS011;34933;40.968;14.538;2022-09-09T12:45:14;26.30;;;6.05;;
48767;SDS011;34933;40.968;14.538;2022-09-09T12:48:04;22.58;;;6.72;;
48767;SDS011;34933;40.968;14.538;2022-09-09T12:50:52;26.55;;;6.57;;
48767;SDS011;34933;40.968;14.538;2022-09-09T12:53:38;22.60;;;5.35;;
48767;SDS011;34933;40.968;14.538;2022-09-09T12:56:24;29.40;;;5.95;;
48767;SDS011;34933;40.968;14.538;2022-09-09T12:59:17;29.05;;;5.47;;
48767;SDS011;34933;40.968;14.538;2022-09-09T13:02:20;26.80;;;5.13;;
48767;SDS011;34933;40.968;14.538;2022-09-09T13:05:17;20.27;;;5.07;;
48767;SDS011;34933;40.968;14.538;2022-09-09T13:08:05;20.02;;;4.88;;
48767;SDS011;34933;40.968;14.538;2022-09-09T13:10:57;24.35;;;5.15;;
48767;SDS011;34933;40.968;14.538;2022-09-09T13:13:50;21.00;;;5.18;;
48767;SDS011;34933;40.968;14.538;2022-09-09T13:16:39;22.13;;;6.00;;
48767;SDS011;34933;40.968;14.538;2022-09-09T13:19:24;30.05;;;5.60;;
48767;SDS011;34933;40.968;14.538;2022-09-09T13:22:13;27.15;;;5.82;;
48767;SDS011;34933;40.968;14.538;2022-09-09T13:25:05;21.60;;;4.68;;
48767;SDS011;34933;40.968;14.538;2022-09-09T13:27:55;26.35;;;5.18;;
48767;SDS011;34933;40.968;14.538;2022-09-09T13:30:54;24.27;;;5.50;;
48767;SDS011;34933;40.968;14.538;2022-09-09T13:33:43;21.35;;;6.38;;
48767;SDS011;34933;40.968;14.538;2022-09-09T13:36:32;27.30;;;5.57;;
48767;SDS011;34933;40.968;14.538;2022-09-09T13:39:18;26.10;;;4.05;;
48767;SDS011;34933;40.968;14.538;2022-09-09T13:42:03;21.48;;;4.75;;
48767;SDS011;34933;40.968;14.538;2022-09-09T13:44:48;21.23;;;4.40;;
48767;SDS011;34933;40.968;14.538;2022-09-09T13:47:34;24.40;;;5.03;;
48767;SDS011;34933;40.968;14.538;2022-09-09T13:50:29;26.48;;;5.07;;
48767;SDS011;34933;40.968;14.538;2022-09-09T13:53:14;26.77;;;4.88;;
48767;SDS011;34933;40.968;14.538;2022-09-09T13:55:59;19.00;;;4.40;;
48767;SDS011;34933;40.968;14.538;2022-09-09T13:58:44;22.90;;;4.63;;
48767;SDS011;34933;40.968;14.538;2022-09-09T14:01:29;18.23;;;4.88;;
48767;SDS011;34933;40.968;14.538;2022-09-09T14:04:13;20.63;;;5.75;;
48767;SDS011;34933;40.968;14.538;2022-09-09T14:06:59;19.58;;;4.30;;
48767;SDS011;34933;40.968;14.538;2022-09-09T14:09:44;19.90;;;5.10;;
48767;SDS011;34933;40.968;14.538;2022-09-09T14:12:33;17.08;;;4.25;;
48767;SDS011;34933;40.968;14.538;2022-09-09T14:15:20;16.10;;;4.10;;
48767;SDS011;34933;40.968;14.538;2022-09-09T14:18:05;21.17;;;5.82;;
48767;SDS011;34933;40.968;14.538;2022-09-09T14:20:50;17.80;;;4.32;;
48767;SDS011;34933;40.968;14.538;2022-09-09T14:23:35;17.05;;;3.90;;
48767;SDS011;34933;40.968;14.538;2022-09-09T14:26:20;14.90;;;3.70;;
48767;SDS011;34933;40.968;14.538;2022-09-09T14:29:05;11.02;;;3.05;;
48767;SDS011;34933;40.968;14.538;2022-09-09T14:31:49;15.05;;;3.72;;
48767;SDS011;34933;40.968;14.538;2022-09-09T14:34:34;21.27;;;4.75;;
48767;SDS011;34933;40.968;14.538;2022-09-09T14:37:18;19.83;;;3.00;;
48767;SDS011;34933;40.968;14.538;2022-09-09T14:40:04;12.85;;;3.30;;
48767;SDS011;34933;40.968;14.538;2022-09-09T14:42:49;14.13;;;3.17;;
48767;SDS011;34933;40.968;14.538;2022-09-09T14:45:35;18.13;;;4.45;;
48767;SDS011;34933;40.968;14.538;2022-09-09T14:48:20;17.70;;;4.35;;
48767;SDS011;34933;40.968;14.538;2022-09-09T14:51:13;17.27;;;3.88;;
48767;SDS011;34933;40.968;14.538;2022-09-09T14:54:00;21.25;;;4.18;;
48767;SDS011;34933;40.968;14.538;2022-09-09T14:56:45;14.35;;;3.50;;
48767;SDS011;34933;40.968;14.538;2022-09-09T14:59:31;16.63;;;3.38;;
48767;SDS011;34933;40.968;14.538;2022-09-09T15:02:16;16.23;;;3.88;;
48767;SDS011;34933;40.968;14.538;2022-09-09T15:05:00;13.05;;;3.50;;
48767;SDS011;34933;40.968;14.538;2022-09-09T15:07:45;17.27;;;4.03;;
48767;SDS011;34933;40.968;14.538;2022-09-09T15:10:30;17.52;;;3.33;;
48767;SDS011;34933;40.968;14.538;2022-09-09T15:13:16;16.45;;;4.15;;
48767;SDS011;34933;40.968;14.538;2022-09-09T15:16:05;18.25;;;3.55;;
48767;SDS011;34933;40.968;14.538;2022-09-09T15:18:53;20.90;;;4.20;;
48767;SDS011;34933;40.968;14.538;2022-09-09T15:21:39;13.90;;;4.18;;
48767;SDS011;34933;40.968;14.538;2022-09-09T15:24:23;12.30;;;3.47;;
48767;SDS011;34933;40.968;14.538;2022-09-09T15:27:09;17.90;;;3.83;;
48767;SDS011;34933;40.968;14.538;2022-09-09T15:29:54;11.63;;;3.42;;
48767;SDS011;34933;40.968;14.538;2022-09-09T15:32:39;12.98;;;3.60;;
48767;SDS011;34933;40.968;14.538;2022-09-09T15:35:23;11.63;;;3.53;;
48767;SDS011;34933;40.968;14.538;2022-09-09T15:38:08;17.40;;;4.50;;
48767;SDS011;34933;40.968;14.538;2022-09-09T15:40:53;10.55;;;3.30;;
48767;SDS011;34933;40.968;14.538;2022-09-09T15:43:39;10.18;;;2.90;;
48767;SDS011;34933;40.968;14.538;2022-09-09T15:49:22;12.90;;;3.10;;
48767;SDS011;34933;40.968;14.538;2022-09-09T15:52:09;14.00;;;3.35;;
48767;SDS011;34933;40.968;14.538;2022-09-09T15:54:54;11.63;;;2.72;;
48767;SDS011;34933;40.968;14.538;2022-09-09T15:57:40;16.02;;;2.60;;
48767;SDS011;34933;40.968;14.538;2022-09-09T16:00:24;6.70;;;2.10;;
48767;SDS011;34933;40.968;14.538;2022-09-09T16:03:09;9.23;;;2.63;;
48767;SDS011;34933;40.968;14.538;2022-09-09T16:05:54;5.55;;;2.55;;
48767;SDS011;34933;40.968;14.538;2022-09-09T16:08:40;8.30;;;2.33;;
48767;SDS011;34933;40.968;14.538;2022-09-09T16:11:28;6.78;;;2.30;;
48767;SDS011;34933;40.968;14.538;2022-09-09T16:14:19;6.20;;;2.20;;
48767;SDS011;34933;40.968;14.538;2022-09-09T16:17:05;13.05;;;2.58;;
48767;SDS011;34933;40.968;14.538;2022-09-09T16:19:50;10.15;;;2.50;;
48767;SDS011;34933;40.968;14.538;2022-09-09T16:22:35;11.68;;;2.60;;
48767;SDS011;34933;40.968;14.538;2022-09-09T16:25:19;9.98;;;2.22;;
48767;SDS011;34933;40.968;14.538;2022-09-09T16:28:05;10.07;;;2.70;;
48767;SDS011;34933;40.968;14.538;2022-09-09T16:30:50;14.07;;;3.05;;
48767;SDS011;34933;40.968;14.538;2022-09-09T16:33:35;15.52;;;2.85;;
48767;SDS011;34933;40.968;14.538;2022-09-09T16:36:21;15.15;;;3.45;;
48767;SDS011;34933;40.968;14.538;2022-09-09T16:39:18;12.30;;;3.78;;
48767;SDS011;34933;40.968;14.538;2022-09-09T16:42:04;19.25;;;4.50;;
48767;SDS011;34933;40.968;14.538;2022-09-09T16:44:48;16.02;;;5.47;;
48767;SDS011;34933;40.968;14.538;2022-09-09T16:47:33;12.73;;;5.10;;
48767;SDS011;34933;40.968;14.538;2022-09-09T16:50:18;13.65;;;4.20;;
48767;SDS011;34933;40.968;14.538;2022-09-09T16:53:03;11.95;;;3.63;;
48767;SDS011;34933;40.968;14.538;2022-09-09T16:55:52;11.63;;;3.22;;
48767;SDS011;34933;40.968;14.538;2022-09-09T16:58:37;10.35;;;3.40;;
48767;SDS011;34933;40.968;14.538;2022-09-09T17:01:22;8.02;;;2.53;;
48767;SDS011;34933;40.968;14.538;2022-09-09T17:04:09;13.73;;;2.60;;
48767;SDS011;34933;40.968;14.538;2022-09-09T17:06:57;10.27;;;2.10;;
48767;SDS011;34933;40.968;14.538;2022-09-09T17:09:44;4.90;;;1.58;;
48767;SDS011;34933;40.968;14.538;2022-09-09T17:12:29;7.95;;;2.33;;
48767;SDS011;34933;40.968;14.538;2022-09-09T17:15:13;7.82;;;2.03;;
48767;SDS011;34933;40.968;14.538;2022-09-09T17:17:58;8.95;;;2.20;;
48767;SDS011;34933;40.968;14.538;2022-09-09T17:20:43;8.70;;;2.65;;
48767;SDS011;34933;40.968;14.538;2022-09-09T17:23:28;7.60;;;2.03;;
48767;SDS011;34933;40.968;14.538;2022-09-09T17:26:14;5.38;;;1.85;;
48767;SDS011;34933;40.968;14.538;2022-09-09T17:29:00;9.85;;;3.55;;
48767;SDS011;34933;40.968;14.538;2022-09-09T17:31:45;12.27;;;5.07;;
48767;SDS011;34933;40.968;14.538;2022-09-09T17:34:30;15.95;;;5.22;;
48767;SDS011;34933;40.968;14.538;2022-09-09T17:37:15;20.23;;;7.38;;
48767;SDS011;34933;40.968;14.538;2022-09-09T17:40:00;20.48;;;7.90;;
48767;SDS011;34933;40.968;14.538;2022-09-09T17:42:44;21.83;;;10.10;;
48767;SDS011;34933;40.968;14.538;2022-09-09T17:45:29;19.73;;;8.15;;
48767;SDS011;34933;40.968;14.538;2022-09-09T17:48:14;17.52;;;6.85;;
48767;SDS011;34933;40.968;14.538;2022-09-09T17:50:59;13.25;;;6.95;;
48767;SDS011;34933;40.968;14.538;2022-09-09T17:53:44;23.55;;;9.90;;
48767;SDS011;34933;40.968;14.538;2022-09-09T17:56:31;25.15;;;10.85;;
48767;SDS011;34933;40.968;14.538;2022-09-09T17:59:16;21.67;;;10.15;;
48767;SDS011;34933;40.968;14.538;2022-09-09T18:02:01;20.95;;;7.18;;
48767;SDS011;34933;40.968;14.538;2022-09-09T18:04:48;21.45;;;6.80;;
48767;SDS011;34933;40.968;14.538;2022-09-09T18:07:32;13.25;;;4.90;;
48767;SDS011;34933;40.968;14.538;2022-09-09T18:10:17;15.07;;;6.45;;
48767;SDS011;34933;40.968;14.538;2022-09-09T18:13:02;14.50;;;4.72;;
48767;SDS011;34933;40.968;14.538;2022-09-09T18:15:46;15.82;;;5.00;;
48767;SDS011;34933;40.968;14.538;2022-09-09T18:18:31;20.70;;;4.88;;
48767;SDS011;34933;40.968;14.538;2022-09-09T18:21:16;12.90;;;4.90;;
48767;SDS011;34933;40.968;14.538;2022-09-09T18:24:03;15.48;;;4.28;;
48767;SDS011;34933;40.968;14.538;2022-09-09T18:26:48;12.80;;;4.63;;
48767;SDS011;34933;40.968;14.538;2022-09-09T18:29:33;11.23;;;4.28;;
48767;SDS011;34933;40.968;14.538;2022-09-09T18:32:18;11.73;;;4.65;;
48767;SDS011;34933;40.968;14.538;2022-09-09T18:35:03;32.15;;;9.95;;
48767;SDS011;34933;40.968;14.538;2022-09-09T18:37:47;18.05;;;6.78;;
48767;SDS011;34933;40.968;14.538;2022-09-09T18:40:32;18.38;;;7.25;;
48767;SDS011;34933;40.968;14.538;2022-09-09T18:43:17;17.65;;;7.05;;
48767;SDS011;34933;40.968;14.538;2022-09-09T18:46:03;20.58;;;7.45;;
48767;SDS011;34933;40.968;14.538;2022-09-09T18:48:48;19.45;;;7.07;;
48767;SDS011;34933;40.968;14.538;2022-09-09T18:51:33;23.73;;;6.28;;